Time;durP1;ratioP1;P1;durP2;ratioP2;P2;SDS_P1;SDS_P2;PMS_P1;PMS_P2;Temp;Humidity;BMP_temperature;BMP_pressure;BME280_temperature;BME280_humidity;BME280_pressure;Samples;Min_cycle;Max_cycle;Signal;HPM_P1;HPM_P2
2023/11/23 00:01:47;;;;;;;5.13;2.53;;;7.50;92.30;;;;;;4807575;29;20046;-76
2023/11/23 00:04:13;;;;;;;3.78;2.03;;;7.50;92.30;;;;;;4807137;29;20540;-77
2023/11/23 00:06:39;;;;;;;4.72;2.40;;;7.60;92.30;;;;;;4807742;29;20062;-77
2023/11/23 00:09:07;;;;;;;3.53;1.92;;;7.60;92.40;;;;;;4807812;29;20378;-77
2023/11/23 00:11:32;;;;;;;5.47;2.45;;;7.60;92.40;;;;;;4807825;29;20043;-77
2023/11/23 00:13:58;;;;;;;4.47;2.20;;;7.60;92.40;;;;;;4777258;29;20094;-77
2023/11/23 00:16:24;;;;;;;4.90;2.28;;;7.60;92.40;;;;;;4824175;29;20371;-76
2023/11/23 00:18:49;;;;;;;4.20;2.20;;;7.60;92.40;;;;;;4806938;29;20041;-77
2023/11/23 00:21:15;;;;;;;5.55;2.72;;;7.60;92.40;;;;;;4807369;29;20049;-77
2023/11/23 00:23:41;;;;;;;5.70;2.70;;;7.60;92.50;;;;;;4807206;29;20050;-77
2023/11/23 00:26:07;;;;;;;4.15;2.25;;;7.60;92.50;;;;;;4792459;29;20117;-77
2023/11/23 00:28:33;;;;;;;3.70;2.10;;;7.60;92.50;;;;;;4823705;29;20107;-77
2023/11/23 00:30:58;;;;;;;5.38;2.78;;;7.60;92.50;;;;;;4807313;29;20517;-77
2023/11/23 00:33:24;;;;;;;5.47;2.67;;;7.50;92.50;;;;;;4806752;29;20042;-77
2023/11/23 00:35:50;;;;;;;5.55;2.67;;;7.70;92.50;;;;;;4823883;29;20426;-77
2023/11/23 00:38:18;;;;;;;7.70;2.65;;;7.60;92.50;;;;;;4823898;29;20038;-77
2023/11/23 00:40:44;;;;;;;4.80;2.60;;;7.60;92.50;;;;;;4823896;29;20034;-77
2023/11/23 00:43:10;;;;;;;4.70;2.42;;;7.70;92.50;;;;;;4807568;29;20076;-77
2023/11/23 00:45:38;;;;;;;4.38;2.08;;;7.70;92.60;;;;;;4791647;29;20153;-77
2023/11/23 00:48:05;;;;;;;5.97;2.60;;;7.70;92.60;;;;;;4823191;29;20038;-79
2023/11/23 00:50:32;;;;;;;4.57;2.58;;;7.70;92.50;;;;;;4806901;29;20085;-77
2023/11/23 00:52:57;;;;;;;4.35;2.28;;;7.70;92.60;;;;;;4792632;29;20046;-77
2023/11/23 00:55:23;;;;;;;4.70;2.47;;;7.70;92.60;;;;;;4777203;29;20053;-77
2023/11/23 00:57:49;;;;;;;4.88;2.50;;;7.80;92.60;;;;;;4807469;29;20046;-77
2023/11/23 01:00:16;;;;;;;5.03;2.42;;;7.80;92.60;;;;;;4807110;29;20039;-77
2023/11/23 01:02:43;;;;;;;6.15;2.60;;;7.80;92.90;;;;;;4822910;29;20050;-77
2023/11/23 01:05:11;;;;;;;3.78;1.90;;;7.80;92.60;;;;;;4823356;29;20058;-77
2023/11/23 01:07:38;;;;;;;4.72;2.50;;;7.90;92.60;;;;;;4791975;29;20406;-77
2023/11/23 01:10:05;;;;;;;5.38;2.55;;;7.90;92.60;;;;;;4806422;29;20035;-77
2023/11/23 01:12:31;;;;;;;4.45;2.38;;;7.90;92.60;;;;;;4823203;29;20038;-77
2023/11/23 01:14:57;;;;;;;5.30;2.90;;;7.90;92.60;;;;;;4806942;29;20042;-77
2023/11/23 01:17:23;;;;;;;5.78;2.85;;;8.00;92.60;;;;;;4791146;29;20085;-77
2023/11/23 01:19:49;;;;;;;5.30;2.90;;;8.10;92.70;;;;;;4790376;29;20110;-77
2023/11/23 01:22:15;;;;;;;4.63;2.72;;;8.00;92.60;;;;;;4823160;29;20118;-77
2023/11/23 01:24:41;;;;;;;5.78;3.00;;;8.10;92.60;;;;;;4806598;29;20054;-77
2023/11/23 01:27:07;;;;;;;5.20;2.78;;;8.10;92.60;;;;;;4806437;29;20049;-77
2023/11/23 01:29:32;;;;;;;4.78;2.72;;;8.10;92.60;;;;;;4790749;29;20171;-77
2023/11/23 01:31:58;;;;;;;6.90;3.42;;;8.10;92.60;;;;;;4806345;29;20512;-77
2023/11/23 01:34:24;;;;;;;5.07;3.00;;;8.10;92.60;;;;;;4806408;29;20057;-77
2023/11/23 01:36:50;;;;;;;6.28;2.88;;;8.10;92.60;;;;;;4822730;29;20401;-77
2023/11/23 01:39:15;;;;;;;5.47;2.70;;;8.20;92.60;;;;;;4822733;29;20393;-77
2023/11/23 01:41:41;;;;;;;6.03;3.30;;;8.20;92.60;;;;;;4806104;29;20043;-77
2023/11/23 01:44:07;;;;;;;5.30;3.05;;;8.30;92.60;;;;;;4789000;29;20514;-77
2023/11/23 01:46:33;;;;;;;6.63;3.65;;;8.20;92.60;;;;;;4822230;29;20034;-77
2023/11/23 01:49:00;;;;;;;5.63;3.20;;;8.30;92.60;;;;;;4790919;29;20070;-76
2023/11/23 01:51:26;;;;;;;4.32;2.78;;;8.30;92.60;;;;;;4805773;29;20513;-77
2023/11/23 01:53:53;;;;;;;5.93;2.97;;;8.30;92.60;;;;;;4805862;29;20117;-77
2023/11/23 01:56:21;;;;;;;4.60;2.55;;;8.40;92.60;;;;;;4791025;29;20054;-77
2023/11/23 01:58:47;;;;;;;5.35;2.67;;;8.40;92.60;;;;;;4806039;29;20037;-77
2023/11/23 02:01:13;;;;;;;5.60;3.00;;;8.30;92.70;;;;;;4805459;29;20106;-77
2023/11/23 02:03:39;;;;;;;5.15;2.85;;;8.40;92.60;;;;;;4822133;29;20145;-77
2023/11/23 02:06:05;;;;;;;4.97;2.75;;;8.50;92.70;;;;;;4821931;29;20103;-77
2023/11/23 02:08:31;;;;;;;5.43;2.90;;;8.50;92.60;;;;;;4805730;29;20436;-77
2023/11/23 02:10:58;;;;;;;6.05;2.58;;;8.50;92.70;;;;;;4805724;29;20054;-77
2023/11/23 02:13:24;;;;;;;5.85;3.00;;;8.60;92.70;;;;;;4804454;29;20522;-77
2023/11/23 02:15:50;;;;;;;6.50;3.10;;;8.60;92.70;;;;;;4791008;29;20060;-77
2023/11/23 02:18:16;;;;;;;5.55;2.92;;;8.60;92.70;;;;;;4775657;29;20030;-78
2023/11/23 02:20:44;;;;;;;5.75;3.00;;;8.60;92.70;;;;;;4821824;29;20046;-77
2023/11/23 02:23:10;;;;;;;5.72;3.22;;;8.70;92.70;;;;;;4790613;29;20438;-78
2023/11/23 02:25:35;;;;;;;7.05;3.50;;;8.70;92.70;;;;;;4805995;29;20058;-77
2023/11/23 02:28:03;;;;;;;6.18;3.60;;;8.70;92.70;;;;;;4805318;29;20031;-77
2023/11/23 02:30:29;;;;;;;5.45;3.03;;;8.70;92.70;;;;;;4805670;29;20462;-77
2023/11/23 02:32:55;;;;;;;5.93;3.33;;;8.70;92.70;;;;;;4821513;29;20042;-77
2023/11/23 02:35:21;;;;;;;5.75;2.95;;;8.70;92.70;;;;;;4805554;29;20054;-77
2023/11/23 02:37:47;;;;;;;5.60;2.60;;;8.80;92.70;;;;;;4789937;29;20042;-77
2023/11/23 02:40:13;;;;;;;6.10;3.00;;;8.80;92.70;;;;;;4804510;29;20049;-77
2023/11/23 02:42:39;;;;;;;5.57;2.83;;;8.80;92.70;;;;;;4777049;29;20042;-77
2023/11/23 02:45:07;;;;;;;5.30;3.03;;;8.90;92.80;;;;;;4808918;29;20043;-77
2023/11/23 02:47:32;;;;;;;5.72;2.63;;;8.90;92.80;;;;;;4825170;29;20113;-78
2023/11/23 02:49:58;;;;;;;4.65;2.70;;;8.90;93.10;;;;;;4808445;29;20130;-77
2023/11/23 02:52:24;;;;;;;4.78;2.80;;;8.90;92.80;;;;;;4792855;29;20038;-77
2023/11/23 02:54:50;;;;;;;5.32;2.75;;;8.90;92.80;;;;;;4824809;29;20118;-77
2023/11/23 02:57:16;;;;;;;6.00;2.83;;;8.90;92.80;;;;;;4825030;29;20038;-77
2023/11/23 02:59:41;;;;;;;4.50;2.60;;;8.90;92.80;;;;;;4824614;29;20456;-77
2023/11/23 03:02:07;;;;;;;4.88;2.58;;;9.00;92.80;;;;;;4808656;29;20064;-77
2023/11/23 03:04:32;;;;;;;5.32;2.65;;;9.00;92.80;;;;;;4793299;29;20059;-76
2023/11/23 03:06:58;;;;;;;4.95;2.50;;;9.00;92.80;;;;;;4778064;29;20038;-77
2023/11/23 03:09:24;;;;;;;3.95;2.22;;;9.10;92.80;;;;;;4824766;29;20062;-77
2023/11/23 03:11:49;;;;;;;3.63;2.22;;;9.10;92.80;;;;;;4824716;29;20042;-77
2023/11/23 03:14:15;;;;;;;3.88;2.22;;;9.10;92.80;;;;;;4824358;29;20562;-78
2023/11/23 03:16:42;;;;;;;3.80;2.40;;;9.10;92.80;;;;;;4824703;29;20080;-77
2023/11/23 03:19:08;;;;;;;3.30;2.10;;;9.10;92.80;;;;;;4808834;29;20129;-77
2023/11/23 03:21:34;;;;;;;4.40;2.50;;;9.20;92.90;;;;;;4807924;29;20054;-77
2023/11/23 03:24:00;;;;;;;3.88;2.67;;;9.20;92.90;;;;;;4792575;29;20115;-78
2023/11/23 03:26:25;;;;;;;4.60;2.63;;;9.20;92.80;;;;;;4824510;29;20533;-77
2023/11/23 03:28:51;;;;;;;4.43;2.55;;;9.20;92.80;;;;;;4807360;29;20034;-78
2023/11/23 03:31:17;;;;;;;4.75;2.47;;;9.30;92.90;;;;;;4824485;29;20195;-77
2023/11/23 03:33:43;;;;;;;3.95;2.40;;;9.30;92.90;;;;;;4808141;29;20047;-77
2023/11/23 03:36:09;;;;;;;3.60;2.20;;;9.30;92.80;;;;;;4808060;29;20043;-78
2023/11/23 03:38:36;;;;;;;3.70;2.38;;;9.30;92.80;;;;;;4791335;29;20037;-77
2023/11/23 03:41:02;;;;;;;3.95;2.17;;;9.30;92.90;;;;;;4824271;29;20066;-77
2023/11/23 03:43:28;;;;;;;4.60;2.50;;;9.30;92.90;;;;;;4824264;29;20538;-76
2023/11/23 03:45:54;;;;;;;3.10;2.03;;;9.40;92.90;;;;;;4807700;29;20133;-77
2023/11/23 03:48:20;;;;;;;4.28;2.20;;;9.40;92.90;;;;;;4808229;29;20056;-77
2023/11/23 03:50:46;;;;;;;4.13;2.50;;;9.40;92.90;;;;;;4824639;29;20126;-77
2023/11/23 03:53:12;;;;;;;4.30;2.65;;;9.50;92.90;;;;;;4807584;29;20554;-77
2023/11/23 03:55:37;;;;;;;5.15;2.75;;;9.40;92.80;;;;;;4824280;29;20152;-77
2023/11/23 03:58:04;;;;;;;3.90;2.40;;;9.50;92.90;;;;;;4807683;29;20047;-78
2023/11/23 04:00:31;;;;;;;5.30;2.80;;;9.50;92.90;;;;;;4824303;29;20094;-77
2023/11/23 04:02:58;;;;;;;5.82;2.83;;;9.60;92.90;;;;;;4807200;29;20072;-77
2023/11/23 04:05:23;;;;;;;4.75;2.65;;;9.50;92.90;;;;;;4790859;29;20050;-78
2023/11/23 04:07:49;;;;;;;3.58;2.25;;;9.50;92.90;;;;;;4792287;29;20442;-77
2023/11/23 04:10:15;;;;;;;4.82;2.72;;;9.50;92.90;;;;;;4791627;29;20424;-77
2023/11/23 04:12:42;;;;;;;4.70;2.83;;;9.50;92.90;;;;;;4823745;29;20066;-77
2023/11/23 04:15:09;;;;;;;4.65;2.70;;;9.60;92.90;;;;;;4807489;29;20039;-77
2023/11/23 04:17:35;;;;;;;4.43;2.55;;;9.50;92.90;;;;;;4807422;29;20046;-77
2023/11/23 04:20:01;;;;;;;5.00;2.35;;;9.50;92.90;;;;;;4823520;29;20038;-77
2023/11/23 04:22:27;;;;;;;3.75;2.30;;;9.60;92.90;;;;;;4824016;29;20091;-77
2023/11/23 04:24:53;;;;;;;5.75;2.63;;;9.60;92.90;;;;;;4823984;29;20095;-77
2023/11/23 04:27:19;;;;;;;4.78;2.80;;;9.60;92.90;;;;;;4823693;29;20030;-77
2023/11/23 04:29:46;;;;;;;4.82;2.60;;;9.70;92.90;;;;;;4807056;29;20467;-77
2023/11/23 04:32:11;;;;;;;3.95;2.25;;;9.60;92.90;;;;;;4824035;29;20042;-77
2023/11/23 04:34:37;;;;;;;4.80;2.45;;;9.70;92.90;;;;;;4806810;29;20049;-77
2023/11/23 04:37:04;;;;;;;4.80;2.30;;;9.70;92.90;;;;;;4791501;29;20063;-77
2023/11/23 04:39:30;;;;;;;5.15;2.50;;;9.70;92.90;;;;;;4806562;29;20068;-77
2023/11/23 04:41:56;;;;;;;4.78;2.20;;;9.70;92.90;;;;;;4823670;29;20075;-77
2023/11/23 04:44:22;;;;;;;4.85;2.38;;;9.80;92.90;;;;;;4823640;29;20117;-78
2023/11/23 04:46:49;;;;;;;4.28;2.25;;;9.80;92.90;;;;;;4801579;29;20107;-77
2023/11/23 04:49:15;;;;;;;4.70;2.20;;;9.80;92.90;;;;;;4806288;29;20035;-77
2023/11/23 04:51:40;;;;;;;4.68;2.20;;;9.80;92.90;;;;;;4823446;29;20038;-77
2023/11/23 04:54:06;;;;;;;4.13;2.40;;;9.90;92.90;;;;;;4806506;29;20050;-77
2023/11/23 04:56:32;;;;;;;3.67;2.40;;;9.90;92.90;;;;;;4806989;29;20121;-77
2023/11/23 04:58:58;;;;;;;5.00;2.45;;;9.90;92.90;;;;;;4823625;29;20038;-77
2023/11/23 05:01:23;;;;;;;3.50;2.10;;;9.90;92.90;;;;;;4790496;29;20038;-77
2023/11/23 05:03:49;;;;;;;3.78;1.90;;;9.90;92.90;;;;;;4806681;29;20046;-77
2023/11/23 05:06:15;;;;;;;4.80;2.28;;;9.90;92.90;;;;;;4806182;29;20072;-77
2023/11/23 05:08:42;;;;;;;5.10;2.25;;;9.90;92.90;;;;;;4823362;29;20035;-77
2023/11/23 05:11:08;;;;;;;4.00;2.50;;;9.90;92.90;;;;;;4823122;29;20047;-77
2023/11/23 05:13:34;;;;;;;3.47;2.10;;;10.00;92.90;;;;;;4807173;29;20099;-77
2023/11/23 05:16:00;;;;;;;4.32;2.20;;;10.00;92.90;;;;;;4823040;29;20066;-77
2023/11/23 05:18:28;;;;;;;4.32;2.55;;;10.00;93.00;;;;;;4791843;29;20050;-77
2023/11/23 05:20:53;;;;;;;7.00;2.63;;;10.00;92.90;;;;;;4823367;29;20061;-76
2023/11/23 05:23:19;;;;;;;3.35;2.15;;;10.00;93.00;;;;;;4806472;29;20050;-77
2023/11/23 05:25:45;;;;;;;3.72;1.92;;;10.00;93.00;;;;;;4823348;29;20046;-77
2023/11/23 05:28:11;;;;;;;4.25;2.00;;;10.00;93.00;;;;;;4806518;29;20034;-77
2023/11/23 05:30:38;;;;;;;4.63;2.50;;;10.00;93.00;;;;;;4823095;29;20108;-76
2023/11/23 05:33:04;;;;;;;3.28;1.92;;;9.90;92.90;;;;;;4806672;29;20109;-77
2023/11/23 05:35:31;;;;;;;3.65;2.05;;;10.00;93.00;;;;;;4789821;29;20177;-77
2023/11/23 05:37:57;;;;;;;3.58;2.10;;;9.90;93.00;;;;;;4806702;29;20159;-76
2023/11/23 05:40:23;;;;;;;4.28;2.35;;;9.90;93.00;;;;;;4822621;29;20039;-76
2023/11/23 05:42:50;;;;;;;3.00;1.73;;;9.90;93.00;;;;;;4822745;29;20513;-76
2023/11/23 05:45:16;;;;;;;5.30;2.42;;;9.80;93.00;;;;;;4806364;29;20409;-76
2023/11/23 05:47:41;;;;;;;3.60;2.10;;;9.90;93.10;;;;;;4822691;29;20034;-77
2023/11/23 05:50:08;;;;;;;3.30;1.95;;;9.90;93.10;;;;;;4822616;29;20390;-77
2023/11/23 05:52:34;;;;;;;3.72;1.85;;;9.90;93.10;;;;;;4822547;29;20501;-76
2023/11/23 05:55:00;;;;;;;3.22;1.83;;;9.90;93.10;;;;;;4806569;29;20097;-77
2023/11/23 05:57:26;;;;;;;4.82;2.00;;;9.80;93.10;;;;;;4806159;29;20107;-77
2023/11/23 05:59:52;;;;;;;3.08;1.90;;;9.90;93.10;;;;;;4806002;29;20495;-76
2023/11/23 06:02:19;;;;;;;3.58;1.90;;;9.80;93.10;;;;;;4805494;29;20102;-76
2023/11/23 06:04:45;;;;;;;4.18;2.17;;;9.80;93.10;;;;;;4806246;29;20050;-77
2023/11/23 06:07:11;;;;;;;3.35;2.03;;;9.80;93.10;;;;;;4804364;29;20039;-77
2023/11/23 06:09:37;;;;;;;4.43;2.53;;;9.90;93.20;;;;;;4791049;29;20504;-77
2023/11/23 06:12:04;;;;;;;5.22;2.63;;;9.90;93.10;;;;;;4806474;29;20027;-76
2023/11/23 06:14:32;;;;;;;4.25;2.53;;;10.00;93.20;;;;;;4806230;29;20042;-77
2023/11/23 06:16:57;;;;;;;4.03;2.53;;;9.90;93.10;;;;;;4824588;29;20047;-76
2023/11/23 06:19:23;;;;;;;5.28;2.38;;;9.90;93.10;;;;;;4825155;29;20401;-77
2023/11/23 06:21:49;;;;;;;5.18;2.60;;;9.90;93.40;;;;;;4809595;29;20057;-77
2023/11/23 06:24:17;;;;;;;5.30;2.55;;;10.00;93.10;;;;;;4808666;29;20138;-77
2023/11/23 06:26:43;;;;;;;4.03;2.22;;;10.00;93.10;;;;;;4825355;29;20035;-76
2023/11/23 06:29:09;;;;;;;4.25;2.30;;;10.00;93.10;;;;;;4825112;29;20042;-77
2023/11/23 06:31:34;;;;;;;4.50;2.80;;;10.10;93.10;;;;;;4825101;29;20045;-77
2023/11/23 06:34:00;;;;;;;3.83;2.63;;;10.10;93.10;;;;;;4809079;29;20126;-77
2023/11/23 06:36:26;;;;;;;5.03;3.05;;;10.00;93.10;;;;;;4793901;29;20047;-77
2023/11/23 06:38:52;;;;;;;6.07;2.90;;;10.10;93.10;;;;;;4808608;29;20074;-77
2023/11/23 06:41:19;;;;;;;5.72;3.10;;;10.00;93.10;;;;;;4809422;29;20045;-77
2023/11/23 06:43:48;;;;;;;4.63;2.70;;;10.10;93.10;;;;;;4825087;29;20117;-77
2023/11/23 06:46:15;;;;;;;5.60;3.08;;;10.10;93.10;;;;;;4808476;29;20517;-77
2023/11/23 06:48:41;;;;;;;6.57;3.22;;;10.10;93.10;;;;;;4824853;29;20038;-77
2023/11/23 06:51:08;;;;;;;4.82;2.63;;;10.10;93.10;;;;;;4824852;29;20041;-77
2023/11/23 06:53:35;;;;;;;4.68;3.03;;;10.10;93.10;;;;;;4825032;29;20041;-76
2023/11/23 06:56:02;;;;;;;5.07;3.08;;;10.10;93.10;;;;;;4778983;29;20042;-77
2023/11/23 06:58:29;;;;;;;5.20;2.63;;;10.10;93.10;;;;;;4824902;29;20530;-77
2023/11/23 07:00:55;;;;;;;4.35;2.30;;;10.10;93.10;;;;;;4793735;29;20084;-77
2023/11/23 07:03:21;;;;;;;4.35;2.70;;;10.10;93.10;;;;;;4825355;29;20062;-77
2023/11/23 07:05:47;;;;;;;4.28;2.58;;;10.20;93.10;;;;;;4808326;29;20107;-77
2023/11/23 07:08:13;;;;;;;3.85;2.10;;;10.10;93.10;;;;;;4825175;29;20397;-76
2023/11/23 07:10:41;;;;;;;2.85;2.00;;;10.10;93.10;;;;;;4808611;29;20042;-77
2023/11/23 07:13:07;;;;;;;5.10;2.50;;;10.10;93.10;;;;;;4793467;29;20069;-77
2023/11/23 07:15:33;;;;;;;4.63;2.50;;;10.20;93.10;;;;;;4809023;29;20042;-75
2023/11/23 07:17:59;;;;;;;5.63;2.60;;;10.20;93.10;;;;;;4792462;29;20046;-78
2023/11/23 07:20:26;;;;;;;5.80;2.58;;;10.20;93.10;;;;;;4825236;29;20512;-78
2023/11/23 07:22:52;;;;;;;5.30;2.30;;;10.10;93.10;;;;;;4808012;29;20109;-77
2023/11/23 07:25:19;;;;;;;3.67;2.05;;;10.20;93.10;;;;;;4824306;29;20046;-77
2023/11/23 07:27:44;;;;;;;5.40;2.42;;;10.20;93.10;;;;;;4807696;29;20043;-77
2023/11/23 07:30:11;;;;;;;3.83;2.10;;;10.20;93.10;;;;;;4808716;29;20031;-77
2023/11/23 07:32:37;;;;;;;4.70;2.53;;;10.20;93.10;;;;;;4808047;29;20047;-77
2023/11/23 07:35:03;;;;;;;4.40;2.47;;;10.20;93.10;;;;;;4824221;29;20038;-77
2023/11/23 07:37:30;;;;;;;3.90;2.22;;;10.10;93.10;;;;;;4808021;29;20401;-78
2023/11/23 07:39:56;;;;;;;5.28;2.45;;;10.20;93.20;;;;;;4793116;29;20038;-77
2023/11/23 07:42:23;;;;;;;4.82;2.13;;;10.20;93.20;;;;;;4808113;29;20141;-77
2023/11/23 07:44:49;;;;;;;3.17;1.83;;;10.20;93.20;;;;;;4824638;29;20462;-77
2023/11/23 07:47:16;;;;;;;3.85;1.92;;;10.20;93.20;;;;;;4807991;29;20084;-77
2023/11/23 07:49:45;;;;;;;4.22;2.13;;;10.20;93.20;;;;;;4824391;29;20031;-77
2023/11/23 07:52:13;;;;;;;4.13;1.80;;;10.20;93.20;;;;;;4790518;29;20035;-76
2023/11/23 07:54:38;;;;;;;4.20;1.95;;;10.20;93.20;;;;;;4807564;29;20375;-76
2023/11/23 07:57:04;;;;;;;2.92;1.70;;;10.30;93.20;;;;;;4807764;29;20039;-77
2023/11/23 07:59:34;;;;;;;3.25;1.73;;;10.20;93.20;;;;;;4792552;29;20401;-76
2023/11/23 08:02:01;;;;;;;3.38;1.92;;;10.20;93.20;;;;;;4778726;29;20054;-77
2023/11/23 08:04:26;;;;;;;2.92;1.88;;;10.30;93.20;;;;;;4824346;29;20054;-77
2023/11/23 08:06:52;;;;;;;3.72;1.77;;;10.30;93.10;;;;;;4777800;29;20052;-76
2023/11/23 08:09:20;;;;;;;5.53;2.20;;;10.30;93.10;;;;;;4777190;29;20104;-77
2023/11/23 08:11:52;;;;;;;3.55;1.95;;;10.40;93.20;;;;;;4806821;29;20398;-77
2023/11/23 08:14:18;;;;;;;3.08;1.65;;;10.30;93.10;;;;;;4808711;29;20065;-77
2023/11/23 08:16:44;;;;;;;2.92;1.70;;;10.30;93.10;;;;;;4807325;29;20070;-77
2023/11/23 08:19:13;;;;;;;2.97;1.67;;;10.30;93.10;;;;;;4823846;29;20054;-77
2023/11/23 08:21:40;;;;;;;3.10;1.98;;;10.40;93.10;;;;;;4807692;29;20043;-78
2023/11/23 08:24:06;;;;;;;2.85;1.58;;;10.40;93.10;;;;;;4792017;29;20034;-78
2023/11/23 08:26:32;;;;;;;2.92;1.77;;;10.40;93.10;;;;;;4806507;29;20043;-78
2023/11/23 08:28:57;;;;;;;3.17;1.98;;;10.40;93.10;;;;;;4807240;29;20030;-76
2023/11/23 08:31:28;;;;;;;5.53;2.13;;;10.40;93.10;;;;;;4807051;29;20038;-78
2023/11/23 08:33:55;;;;;;;6.53;2.40;;;10.40;93.10;;;;;;4807864;29;20447;-78
2023/11/23 08:36:21;;;;;;;4.72;2.00;;;10.40;93.10;;;;;;4792490;29;20284;-77
2023/11/23 08:38:47;;;;;;;4.20;2.10;;;10.50;93.10;;;;;;4807145;29;20041;-76
2023/11/23 08:41:13;;;;;;;3.95;2.10;;;10.50;93.10;;;;;;4792246;29;20050;-75
2023/11/23 08:43:39;;;;;;;2.80;1.73;;;10.50;93.10;;;;;;4791831;29;20030;-77
2023/11/23 08:46:07;;;;;;;6.07;2.13;;;10.50;93.10;;;;;;4807002;29;20046;-75
2023/11/23 08:48:32;;;;;;;3.08;2.00;;;10.50;93.10;;;;;;4807800;29;20542;-77
2023/11/23 08:50:58;;;;;;;3.30;2.17;;;10.60;93.10;;;;;;4823755;29;20034;-76
2023/11/23 08:53:24;;;;;;;4.45;2.25;;;10.50;93.10;;;;;;4811030;29;20098;-77
2023/11/23 08:55:53;;;;;;;3.92;2.15;;;10.50;93.10;;;;;;4825703;29;20042;-77
2023/11/23 08:58:19;;;;;;;5.05;2.30;;;10.60;93.10;;;;;;4807950;29;20042;-78
2023/11/23 09:00:45;;;;;;;3.70;2.15;;;10.60;93.10;;;;;;4824707;29;20109;-77
2023/11/23 09:03:11;;;;;;;4.70;2.53;;;10.60;93.10;;;;;;4826366;29;20362;-78
2023/11/23 09:05:37;;;;;;;4.78;2.10;;;10.60;93.10;;;;;;4812865;29;20054;-77
2023/11/23 09:08:06;;;;;;;2.42;1.88;;;10.60;93.00;;;;;;4809234;29;20500;-78
2023/11/23 09:10:33;;;;;;;3.40;2.20;;;10.70;93.10;;;;;;4809492;29;20098;-76
2023/11/23 09:13:01;;;;;;;3.03;1.83;;;10.70;93.10;;;;;;4812360;29;20351;-77
2023/11/23 09:15:28;;;;;;;4.63;2.20;;;10.70;93.00;;;;;;4825980;29;20102;-77
2023/11/23 09:17:55;;;;;;;2.78;1.75;;;10.80;93.10;;;;;;4829912;29;20051;-78
2023/11/23 09:20:21;;;;;;;2.55;1.80;;;10.80;93.10;;;;;;4809044;29;20095;-78
2023/11/23 09:22:46;;;;;;;4.22;1.98;;;10.80;93.00;;;;;;4795920;29;20497;-77
2023/11/23 09:25:13;;;;;;;2.55;1.85;;;10.80;93.00;;;;;;4778552;29;20086;-76
2023/11/23 09:27:39;;;;;;;3.33;2.03;;;10.90;93.00;;;;;;4807348;29;20129;-76
2023/11/23 09:30:06;;;;;;;3.88;2.17;;;10.90;93.00;;;;;;4791132;29;20126;-76
2023/11/23 09:32:33;;;;;;;2.63;1.80;;;10.90;93.00;;;;;;4807440;29;20046;-77
2023/11/23 09:34:59;;;;;;;3.30;1.83;;;11.00;93.00;;;;;;4805962;29;20074;-76
2023/11/23 09:37:26;;;;;;;3.20;1.80;;;11.00;93.00;;;;;;4833535;29;20035;-77
2023/11/23 09:39:52;;;;;;;1.73;1.50;;;11.00;92.90;;;;;;4803650;29;20031;-76
2023/11/23 09:42:29;;;;;;;2.03;1.60;;;11.10;92.90;;;;;;4793102;29;20072;-75
2023/11/23 09:44:57;;;;;;;4.43;1.90;;;11.10;92.90;;;;;;4807803;29;20520;-77
2023/11/23 09:47:31;;;;;;;3.00;1.90;;;11.10;92.90;;;;;;4805187;29;20050;-77
2023/11/23 09:49:59;;;;;;;3.00;1.88;;;11.10;92.90;;;;;;4791472;29;20928;-77
2023/11/23 09:52:27;;;;;;;3.63;2.10;;;11.20;92.90;;;;;;4796716;29;20102;-77
2023/11/23 09:54:56;;;;;;;3.08;1.95;;;11.20;92.90;;;;;;4812378;29;20038;-77
2023/11/23 09:57:23;;;;;;;3.85;1.90;;;11.20;92.90;;;;;;4828760;29;20135;-77
2023/11/23 09:59:49;;;;;;;2.20;1.52;;;11.20;92.90;;;;;;4811789;29;20046;-77
2023/11/23 10:02:23;;;;;;;2.55;1.60;;;11.20;92.90;;;;;;4828926;29;20065;-76
2023/11/23 10:04:50;;;;;;;3.25;1.65;;;11.30;92.90;;;;;;4810044;29;20042;-79
2023/11/23 10:07:16;;;;;;;2.95;1.48;;;11.20;92.90;;;;;;4841179;29;20071;-77
2023/11/23 10:09:43;;;;;;;2.83;1.70;;;11.30;92.90;;;;;;4844446;29;20065;-78
2023/11/23 10:12:09;;;;;;;3.22;1.80;;;11.30;92.90;;;;;;4810416;29;20023;-78
2023/11/23 10:14:35;;;;;;;3.13;1.80;;;11.30;92.90;;;;;;4830123;29;20035;-79
2023/11/23 10:17:00;;;;;;;2.67;1.50;;;11.30;92.80;;;;;;4843329;29;20046;-78
2023/11/23 10:19:26;;;;;;;2.45;1.50;;;11.30;92.90;;;;;;4845854;29;20053;-78
2023/11/23 10:21:55;;;;;;;2.53;1.60;;;11.30;92.90;;;;;;4838492;29;20090;-78
2023/11/23 10:24:23;;;;;;;2.20;1.48;;;11.40;92.90;;;;;;4836434;29;20074;-78
2023/11/23 10:26:50;;;;;;;3.75;1.52;;;11.40;92.90;;;;;;4824544;29;20130;-78
2023/11/23 10:29:23;;;;;;;2.05;1.40;;;11.40;92.90;;;;;;4822080;29;20158;-78
2023/11/23 10:31:50;;;;;;;2.10;1.40;;;11.50;92.90;;;;;;4804369;29;20031;-78
2023/11/23 10:34:18;;;;;;;1.92;1.40;;;11.50;92.80;;;;;;4811098;29;20843;-78
2023/11/23 10:36:48;;;;;;;1.75;1.25;;;11.60;92.80;;;;;;4827126;29;20047;-78
2023/11/23 10:39:19;;;;;;;1.73;1.42;;;11.60;92.80;;;;;;4826723;29;20042;-78
2023/11/23 10:41:46;;;;;;;2.58;1.50;;;11.60;92.80;;;;;;4825313;29;20071;-78
2023/11/23 10:44:12;;;;;;;2.83;1.77;;;11.60;92.80;;;;;;4843216;29;20095;-78
2023/11/23 10:46:39;;;;;;;1.45;1.30;;;11.60;92.80;;;;;;4816772;29;20047;-78
2023/11/23 10:49:07;;;;;;;2.15;1.42;;;11.70;92.80;;;;;;4816448;29;20034;-78
2023/11/23 10:51:34;;;;;;;1.60;1.40;;;11.70;92.80;;;;;;4826837;29;20042;-78
2023/11/23 10:54:00;;;;;;;2.25;1.40;;;11.70;92.70;;;;;;4810620;29;20066;-78
2023/11/23 10:56:29;;;;;;;1.67;1.33;;;11.70;92.80;;;;;;4822914;29;20103;-78
2023/11/23 10:59:00;;;;;;;1.42;1.33;;;11.70;92.80;;;;;;4812485;29;20043;-78
2023/11/23 11:01:27;;;;;;;2.17;1.50;;;11.70;92.70;;;;;;4810368;29;20050;-78
2023/11/23 11:03:54;;;;;;;2.70;1.45;;;11.70;92.70;;;;;;4825013;29;20042;-79
2023/11/23 11:06:22;;;;;;;2.63;1.55;;;11.80;92.70;;;;;;4808841;29;20111;-79
2023/11/23 11:08:49;;;;;;;1.92;1.40;;;11.80;92.70;;;;;;4807869;29;20043;-78
2023/11/23 11:11:23;;;;;;;3.65;1.45;;;11.80;92.70;;;;;;4807654;29;20549;-78
2023/11/23 11:13:58;;;;;;;3.33;1.70;;;11.90;92.60;;;;;;4793876;29;20076;-78
2023/11/23 11:16:33;;;;;;;2.15;1.38;;;11.90;92.60;;;;;;4794436;29;20034;-79
2023/11/23 11:19:17;;;;;;;2.10;1.48;;;11.90;92.50;;;;;;4789401;29;20384;-78
2023/11/23 11:21:44;;;;;;;2.03;1.40;;;12.00;92.60;;;;;;4713035;30;20145;-78
2023/11/23 11:24:24;;;;;;;2.70;1.50;;;11.90;92.60;;;;;;4716174;30;20497;-78
2023/11/23 11:26:50;;;;;;;2.60;1.38;;;12.00;92.60;;;;;;4716269;30;20061;-78
2023/11/23 11:29:17;;;;;;;2.67;1.52;;;12.00;92.60;;;;;;4715860;30;20049;-78
2023/11/23 11:31:47;;;;;;;2.05;1.40;;;12.00;92.60;;;;;;4715558;30;20041;-78
2023/11/23 11:34:20;;;;;;;2.17;1.25;;;12.00;92.60;;;;;;4716609;30;20045;-78
2023/11/23 11:36:51;;;;;;;2.03;1.30;;;12.00;92.60;;;;;;4715584;30;20053;-78
2023/11/23 11:39:16;;;;;;;;;;;12.00;92.60;;;;;;4716186;30;20041;-78
2023/11/23 11:41:47;;;;;;;2.33;1.50;;;12.00;92.60;;;;;;4715660;30;19911;-78
2023/11/23 11:44:15;;;;;;;2.38;1.38;;;12.00;92.60;;;;;;4701773;30;20095;-78
2023/11/23 11:46:41;;;;;;;3.53;1.42;;;12.00;92.60;;;;;;4741436;30;20158;-78
2023/11/23 11:49:11;;;;;;;2.58;1.40;;;12.00;92.60;;;;;;4724833;30;20115;-78
2023/11/23 11:51:36;;;;;;;2.05;1.17;;;12.00;92.60;;;;;;4757307;29;20517;-78
2023/11/23 11:54:04;;;;;;;3.03;1.40;;;12.00;92.60;;;;;;4824150;29;20069;-77
2023/11/23 11:56:30;;;;;;;2.90;1.10;;;12.00;92.60;;;;;;4793268;29;20042;-78
2023/11/23 11:58:56;;;;;;;2.15;1.17;;;12.00;92.60;;;;;;4808578;29;20099;-77
2023/11/23 12:01:22;;;;;;;2.65;1.30;;;12.00;92.60;;;;;;4807181;29;20034;-78
2023/11/23 12:03:50;;;;;;;2.80;1.48;;;12.00;92.60;;;;;;4808109;29;20055;-77
2023/11/23 12:06:19;;;;;;;1.60;1.00;;;12.00;92.60;;;;;;4808197;29;20035;-77
2023/11/23 12:08:45;;;;;;;1.55;1.00;;;12.00;92.60;;;;;;4808426;29;20098;-77
2023/11/23 12:11:23;;;;;;;1.85;0.98;;;12.10;92.60;;;;;;4793132;29;20026;-78
2023/11/23 12:13:53;;;;;;;1.20;0.98;;;12.10;92.60;;;;;;4807633;29;20077;-78
2023/11/23 12:16:20;;;;;;;2.38;1.10;;;12.10;92.60;;;;;;4807624;29;20669;-77
2023/11/23 12:18:47;;;;;;;1.02;0.90;;;12.10;92.60;;;;;;4807916;29;20042;-78
2023/11/23 12:21:13;;;;;;;0.60;0.60;;;12.30;92.70;;;;;;4824061;29;20529;-78
2023/11/23 12:23:42;;;;;;;1.42;0.80;;;12.20;92.60;;;;;;4791441;29;20176;-77
2023/11/23 12:26:10;;;;;;;1.88;1.10;;;12.20;92.60;;;;;;4807869;29;20050;-78
2023/11/23 12:28:37;;;;;;;1.27;0.88;;;12.20;92.60;;;;;;4793099;29;20039;-78
2023/11/23 12:31:03;;;;;;;1.00;0.90;;;12.30;92.60;;;;;;4792247;29;20061;-78
2023/11/23 12:33:29;;;;;;;1.17;0.77;;;12.30;92.60;;;;;;4826825;29;20042;-79
2023/11/23 12:35:55;;;;;;;1.10;0.52;;;12.30;92.60;;;;;;4796609;29;20119;-76
2023/11/23 12:38:20;;;;;;;3.53;1.00;;;12.30;92.50;;;;;;4792925;29;22540;-77
2023/11/23 12:40:46;;;;;;;0.98;0.90;;;12.30;92.50;;;;;;4827969;29;20129;-77
2023/11/23 12:43:14;;;;;;;1.25;0.65;;;12.40;92.50;;;;;;4824769;29;20042;-77
2023/11/23 12:45:43;;;;;;;2.05;0.88;;;12.40;92.40;;;;;;4825265;29;20049;-76
2023/11/23 12:48:10;;;;;;;1.17;0.85;;;12.40;92.40;;;;;;4809183;29;20050;-77
2023/11/23 12:50:36;;;;;;;2.95;0.90;;;12.50;92.40;;;;;;4825776;29;20026;-77